Terminal Aerodrome Forecast
Issued by NWS

Home | Current Version | Previous Version | Text Only | Print | Product List | Glossary On
Versions: 1 2 3 4 5 6 7 8 9 10 11 12 13 14 15 16 17 18
000
FTUS43 KEAX 282300 CCA
TAFMKC
TAF COR
KMKC 282353Z 2900/2924 20009KT P6SM SCT250
     FM291000 19008KT 1SM BR BKN005
     FM291600 19012KT P6SM SCT050=

USA.gov is the U.S. government's official web portal to all federal, state and local government web resources and services.